Time;durP1;ratioP1;P1;durP2;ratioP2;P2;SDS_P1;SDS_P2;PMS_P1;PMS_P2;Temp;Humidity;BMP_temperature;BMP_pressure;BME280_temperature;BME280_humidity;BME280_pressure;Samples;Min_cycle;Max_cycle;Signal;HPM_P1;HPM_P2
2022/08/21 00:01:28;;;;;;;2.85;2.22;;;16.50;99.90;;;;;;5017743;28;20054;-72
2022/08/21 00:03:55;;;;;;;4.53;2.35;;;16.40;99.90;;;;;;5015892;28;20088;-71
2022/08/21 00:06:22;;;;;;;4.20;2.70;;;16.40;99.90;;;;;;5013576;28;20034;-72
2022/08/21 00:08:48;;;;;;;3.70;2.58;;;16.30;99.90;;;;;;5010855;28;20030;-71
2022/08/21 00:11:14;;;;;;;5.30;2.33;;;16.20;99.90;;;;;;5015335;28;20069;-72
2022/08/21 00:13:39;;;;;;;4.57;2.95;;;16.20;99.90;;;;;;5015817;28;20022;-72
2022/08/21 00:16:05;;;;;;;4.82;2.28;;;16.10;99.90;;;;;;5013998;28;20662;-72
2022/08/21 00:18:31;;;;;;;4.10;2.38;;;16.10;99.90;;;;;;5013812;28;20018;-72
2022/08/21 00:20:57;;;;;;;4.90;3.17;;;16.10;99.90;;;;;;5012187;28;20088;-72
2022/08/21 00:23:22;;;;;;;3.00;2.25;;;16.10;99.90;;;;;;5011965;28;20025;-72
2022/08/21 00:25:51;;;;;;;6.47;2.50;;;16.00;99.90;;;;;;5008564;28;20030;-72
2022/08/21 00:28:17;;;;;;;4.80;2.20;;;16.00;99.90;;;;;;5014271;28;20037;-72
2022/08/21 00:30:44;;;;;;;7.05;2.63;;;;;;;;;;5013286;28;20068;-72
2022/08/21 00:33:11;;;;;;;3.22;1.95;;;;;;;;;;5010832;28;20441;-72
2022/08/21 00:35:39;;;;;;;4.53;2.03;;;;;;;;;;5011138;28;20029;-72
2022/08/21 00:38:05;;;;;;;3.83;1.90;;;;;;;;;;5010357;28;20029;-72
2022/08/21 00:40:40;;;;;;;3.70;2.38;;;;;;;;;;5011830;28;20050;-72
2022/08/21 00:43:08;;;;;;;4.10;1.90;;;;;;;;;;5009161;28;20662;-71
2022/08/21 00:45:35;;;;;;;3.63;1.90;;;;;;;;;;5011705;28;20096;-71
2022/08/21 00:48:01;;;;;;;5.32;2.20;;;;;;;;;;5011915;28;20022;-72
2022/08/21 00:50:31;;;;;;;2.75;2.03;;;;;;;;;;5010542;28;20026;-72
2022/08/21 00:52:58;;;;;;;3.47;1.80;;;;;;;;;;5010426;28;20474;-72
2022/08/21 00:55:24;;;;;;;4.13;2.17;;;15.70;99.90;;;;;;5012365;28;20026;-72
2022/08/21 00:57:54;;;;;;;5.43;2.00;;;15.60;99.90;;;;;;5014298;28;20464;-71
2022/08/21 01:00:30;;;;;;;4.55;2.42;;;15.50;99.90;;;;;;5005034;28;20051;-71
2022/08/21 01:02:58;;;;;;;3.08;2.00;;;15.40;99.90;;;;;;5008625;28;20475;-72
2022/08/21 01:05:24;;;;;;;4.88;1.98;;;15.40;99.90;;;;;;5010503;28;20053;-72
2022/08/21 01:07:50;;;;;;;2.78;1.80;;;15.40;99.90;;;;;;5015932;28;20148;-71
2022/08/21 01:10:18;;;;;;;2.80;2.00;;;15.40;99.90;;;;;;5013669;28;20485;-72
2022/08/21 01:12:44;;;;;;;4.28;2.20;;;15.30;99.90;;;;;;5011148;28;20038;-71
2022/08/21 01:15:10;;;;;;;5.35;1.90;;;15.30;99.90;;;;;;5010538;28;20586;-72
2022/08/21 01:17:36;;;;;;;4.65;2.15;;;15.30;99.90;;;;;;5009093;28;20120;-71
2022/08/21 01:20:05;;;;;;;2.88;1.75;;;15.30;99.90;;;;;;5005949;28;20033;-71
2022/08/21 01:22:31;;;;;;;2.83;1.80;;;15.20;99.90;;;;;;5012232;28;20042;-73
2022/08/21 01:24:57;;;;;;;5.97;2.67;;;;;;;;;;5014298;28;20040;-71
2022/08/21 01:27:23;;;;;;;4.65;2.25;;;;;;;;;;5010229;28;20497;-71
2022/08/21 01:29:56;;;;;;;4.72;1.60;;;;;;;;;;5015016;28;20030;-71
2022/08/21 01:32:23;;;;;;;3.13;1.83;;;;;;;;;;5009812;28;20033;-73
2022/08/21 01:34:50;;;;;;;3.63;1.83;;;;;;;;;;5009859;28;20076;-72
2022/08/21 01:37:16;;;;;;;3.97;1.90;;;;;;;;;;5008127;28;20087;-72
2022/08/21 01:39:42;;;;;;;4.03;2.05;;;;;;;;;;5014180;28;20044;-72
2022/08/21 01:42:08;;;;;;;7.78;2.50;;;;;;;;;;5014011;28;20120;-72
2022/08/21 01:44:35;;;;;;;5.63;1.77;;;;;;;;;;5014466;28;20038;-72
2022/08/21 01:47:02;;;;;;;4.78;2.45;;;;;;;;;;5014805;28;20029;-74
2022/08/21 01:49:28;;;;;;;2.95;2.10;;;;;;;;;;5015047;28;20105;-72
2022/08/21 01:51:54;;;;;;;3.53;1.90;;;;;;;;;;5002698;28;20052;-71
2022/08/21 01:54:20;;;;;;;5.95;2.60;;;;;;;;;;5012326;28;20032;-72
2022/08/21 01:56:48;;;;;;;5.88;2.40;;;;;;;;;;5014013;28;20112;-73
2022/08/21 01:59:14;;;;;;;5.78;2.10;;;;;;;;;;5013269;28;20167;-72
2022/08/21 02:01:39;;;;;;;3.63;2.00;;;15.00;99.90;;;;;;5013641;28;20434;-72
2022/08/21 02:04:07;;;;;;;4.07;2.20;;;;;;;;;;5013492;28;20084;-72
2022/08/21 02:06:32;;;;;;;3.60;2.05;;;14.80;99.90;;;;;;5014240;28;20030;-73
2022/08/21 02:08:58;;;;;;;3.72;2.35;;;14.70;99.90;;;;;;4995681;28;20429;-72
2022/08/21 02:11:24;;;;;;;3.78;1.90;;;14.60;99.90;;;;;;5012452;28;20038;-72
2022/08/21 02:13:50;;;;;;;4.70;2.30;;;14.60;99.90;;;;;;5013636;28;20033;-72
2022/08/21 02:16:16;;;;;;;5.82;2.28;;;14.50;99.90;;;;;;5013202;28;20026;-72
2022/08/21 02:18:42;;;;;;;2.50;1.83;;;14.50;99.90;;;;;;5013486;28;20375;-73
2022/08/21 02:21:07;;;;;;;2.97;1.88;;;14.40;99.90;;;;;;5011148;28;20033;-73
2022/08/21 02:23:33;;;;;;;4.43;2.17;;;14.40;99.90;;;;;;4999835;28;20038;-74
2022/08/21 02:26:02;;;;;;;3.90;2.00;;;14.40;99.90;;;;;;5013256;28;20030;-73
2022/08/21 02:28:27;;;;;;;2.75;2.10;;;14.40;99.90;;;;;;5014387;28;20030;-72
2022/08/21 02:30:56;;;;;;;4.28;2.22;;;14.40;99.90;;;;;;5011585;28;20095;-71
2022/08/21 02:33:23;;;;;;;6.22;2.70;;;14.30;99.90;;;;;;5013025;28;20537;-72
2022/08/21 02:35:50;;;;;;;2.75;2.20;;;14.30;99.90;;;;;;5012540;28;20041;-73
2022/08/21 02:38:28;;;;;;;2.95;1.90;;;14.30;99.90;;;;;;5012539;28;20282;-72
2022/08/21 02:40:54;;;;;;;3.70;2.47;;;14.30;99.90;;;;;;5013473;28;20037;-73
2022/08/21 02:43:22;;;;;;;4.70;2.22;;;14.30;99.90;;;;;;5013384;28;20038;-73
2022/08/21 02:45:48;;;;;;;5.13;2.47;;;14.20;99.90;;;;;;5012571;28;20467;-72
2022/08/21 02:48:17;;;;;;;4.55;2.42;;;14.20;99.90;;;;;;5009504;28;20117;-72
2022/08/21 02:50:52;;;;;;;5.75;2.40;;;14.30;99.90;;;;;;5013387;28;20034;-72
2022/08/21 02:53:18;;;;;;;4.43;2.65;;;14.30;99.90;;;;;;5012113;28;20065;-73
2022/08/21 02:55:46;;;;;;;5.05;2.45;;;14.30;99.90;;;;;;4996026;28;20057;-73
2022/08/21 02:58:13;;;;;;;6.45;3.17;;;14.30;99.90;;;;;;5011893;28;20040;-72
2022/08/21 03:00:39;;;;;;;4.35;2.75;;;14.30;99.90;;;;;;5012244;28;20046;-74
2022/08/21 03:03:06;;;;;;;4.45;2.53;;;14.30;99.90;;;;;;5012455;28;20029;-72
2022/08/21 03:05:33;;;;;;;5.35;2.15;;;14.20;99.90;;;;;;5009849;28;20026;-73
2022/08/21 03:08:01;;;;;;;5.85;2.00;;;14.20;99.90;;;;;;5011847;28;20466;-72
2022/08/21 03:10:28;;;;;;;4.78;2.55;;;14.20;99.90;;;;;;5017358;28;20038;-72
2022/08/21 03:12:54;;;;;;;5.45;3.00;;;14.20;99.90;;;;;;5013169;28;20037;-73
2022/08/21 03:15:23;;;;;;;3.35;2.10;;;14.20;99.90;;;;;;5012011;28;20049;-71
2022/08/21 03:17:50;;;;;;;4.07;2.42;;;14.10;99.90;;;;;;5012473;28;20378;-73
2022/08/21 03:20:19;;;;;;;4.65;2.60;;;14.10;99.90;;;;;;5016888;28;20474;-72
2022/08/21 03:22:44;;;;;;;5.70;2.70;;;14.10;99.90;;;;;;5010834;28;20055;-72
2022/08/21 03:25:10;;;;;;;4.78;2.42;;;14.20;99.90;;;;;;5018580;28;20458;-73
2022/08/21 03:27:37;;;;;;;4.13;2.70;;;14.10;99.90;;;;;;5022939;28;20095;-73
2022/08/21 03:30:05;;;;;;;4.18;2.22;;;14.10;99.90;;;;;;5011710;28;20360;-73
2022/08/21 03:32:31;;;;;;;5.00;2.80;;;14.20;99.90;;;;;;5012560;28;20486;-73
2022/08/21 03:34:58;;;;;;;5.82;2.80;;;14.20;99.90;;;;;;5011068;28;20037;-73
2022/08/21 03:37:27;;;;;;;4.05;2.50;;;14.20;99.90;;;;;;5011905;28;20498;-71
2022/08/21 03:39:53;;;;;;;5.10;2.97;;;14.20;99.90;;;;;;5012421;28;20034;-71
2022/08/21 03:42:19;;;;;;;7.68;2.80;;;14.20;99.90;;;;;;5013141;28;20660;-72
2022/08/21 03:44:44;;;;;;;5.88;3.00;;;14.10;99.90;;;;;;5011613;28;20025;-72
2022/08/21 03:47:10;;;;;;;3.95;2.78;;;14.10;99.90;;;;;;5011494;28;20026;-73
2022/08/21 03:49:39;;;;;;;4.88;2.80;;;14.10;99.90;;;;;;5012151;28;20030;-72
2022/08/21 03:52:04;;;;;;;4.90;2.70;;;14.00;99.90;;;;;;5011667;28;20061;-72
2022/08/21 03:54:31;;;;;;;6.18;3.30;;;14.00;99.90;;;;;;5011939;28;20479;-73
2022/08/21 03:56:57;;;;;;;6.18;3.05;;;14.00;99.90;;;;;;5010369;28;20038;-73
2022/08/21 03:59:24;;;;;;;5.00;2.60;;;13.90;99.90;;;;;;5011619;28;20033;-73
2022/08/21 04:01:58;;;;;;;3.30;2.40;;;13.90;99.90;;;;;;5011725;28;20052;-73
2022/08/21 04:04:28;;;;;;;6.07;3.00;;;13.90;99.90;;;;;;5010776;28;20044;-72
2022/08/21 04:06:55;;;;;;;3.15;2.42;;;13.90;99.90;;;;;;5006773;28;20121;-73
2022/08/21 04:09:20;;;;;;;4.20;2.67;;;13.80;99.90;;;;;;4995687;28;20038;-73
2022/08/21 04:11:47;;;;;;;5.03;3.15;;;13.80;99.90;;;;;;5002020;28;20383;-75
2022/08/21 04:14:14;;;;;;;5.55;2.70;;;13.80;99.90;;;;;;4992651;28;20052;-73
2022/08/21 04:16:41;;;;;;;6.05;3.13;;;13.70;99.90;;;;;;4993315;28;20026;-72
2022/08/21 04:19:07;;;;;;;4.82;2.33;;;13.70;99.90;;;;;;4995728;28;20026;-71
2022/08/21 04:21:33;;;;;;;4.82;2.75;;;13.70;99.90;;;;;;4990799;28;20472;-73
2022/08/21 04:23:59;;;;;;;7.20;3.17;;;13.70;99.90;;;;;;4992533;28;20076;-72
2022/08/21 04:26:25;;;;;;;5.13;2.67;;;13.70;99.90;;;;;;5002729;28;20026;-73
2022/08/21 04:28:52;;;;;;;4.28;2.80;;;13.60;99.90;;;;;;4992898;28;20030;-73
2022/08/21 04:31:17;;;;;;;4.38;2.88;;;13.60;99.90;;;;;;4989385;28;20034;-71
2022/08/21 04:33:44;;;;;;;4.07;2.92;;;13.60;99.90;;;;;;4992458;28;20032;-72
2022/08/21 04:36:10;;;;;;;4.07;3.13;;;13.60;99.90;;;;;;5000766;28;20034;-71
2022/08/21 04:38:37;;;;;;;8.07;3.42;;;13.60;99.90;;;;;;4993679;28;20022;-72
2022/08/21 04:41:04;;;;;;;3.63;2.80;;;13.60;99.90;;;;;;5003573;28;20065;-71
2022/08/21 04:43:32;;;;;;;4.88;2.95;;;13.60;99.90;;;;;;5011347;28;20034;-72
2022/08/21 04:45:57;;;;;;;5.00;3.05;;;13.60;99.90;;;;;;5011144;28;20486;-72
2022/08/21 04:48:26;;;;;;;5.53;3.40;;;13.60;99.90;;;;;;4990017;28;20042;-72
2022/08/21 04:51:00;;;;;;;4.15;3.03;;;13.60;99.90;;;;;;4992344;28;20136;-72
2022/08/21 04:53:35;;;;;;;7.03;2.92;;;13.70;99.90;;;;;;4991786;28;20030;-72
2022/08/21 04:56:26;;;;;;;4.95;3.00;;;13.80;99.90;;;;;;4991978;28;20032;-71
2022/08/21 04:58:55;;;;;;;7.38;2.90;;;13.80;99.90;;;;;;5003622;28;20053;-72
2022/08/21 05:01:27;;;;;;;4.55;2.40;;;13.90;99.90;;;;;;5004071;28;20069;-72
2022/08/21 05:03:56;;;;;;;9.57;3.20;;;13.90;99.90;;;;;;5013680;28;20038;-72
2022/08/21 05:06:23;;;;;;;6.55;3.05;;;14.00;99.90;;;;;;5013772;28;20022;-72
2022/08/21 05:08:52;;;;;;;4.38;2.60;;;14.00;99.90;;;;;;5015128;28;20100;-72
2022/08/21 05:11:19;;;;;;;7.77;3.07;;;14.10;99.90;;;;;;5014232;28;20038;-72
2022/08/21 05:13:45;;;;;;;4.95;2.70;;;14.10;99.90;;;;;;5015201;28;20033;-73
2022/08/21 05:16:11;;;;;;;4.35;3.05;;;14.20;99.90;;;;;;5014392;28;20072;-73
2022/08/21 05:18:37;;;;;;;4.57;2.75;;;14.20;99.90;;;;;;5015357;28;20032;-71
2022/08/21 05:21:03;;;;;;;6.32;3.63;;;14.30;99.90;;;;;;5020120;28;20105;-72
2022/08/21 05:23:28;;;;;;;5.78;3.17;;;14.30;99.90;;;;;;5012823;28;20034;-72
2022/08/21 05:25:55;;;;;;;4.88;3.17;;;14.40;99.90;;;;;;5015025;28;20034;-72
2022/08/21 05:28:21;;;;;;;5.82;2.80;;;14.50;99.90;;;;;;5017792;28;20394;-73
2022/08/21 05:30:46;;;;;;;5.10;3.10;;;14.60;99.90;;;;;;5017089;28;20026;-72
2022/08/21 05:33:12;;;;;;;4.07;2.72;;;14.60;99.90;;;;;;5020793;28;20492;-72
2022/08/21 05:35:38;;;;;;;2.95;2.40;;;14.70;99.90;;;;;;5009435;28;20033;-72
2022/08/21 05:38:04;;;;;;;6.85;2.90;;;14.80;99.90;;;;;;5006824;28;20383;-72
2022/08/21 05:40:31;;;;;;;4.78;2.95;;;14.90;99.90;;;;;;5014753;28;20038;-73
2022/08/21 05:42:58;;;;;;;4.22;2.83;;;14.90;99.90;;;;;;5014663;28;20038;-73
2022/08/21 05:45:30;;;;;;;8.20;3.20;;;15.00;99.90;;;;;;5014053;28;20060;-72
2022/08/21 05:47:56;;;;;;;3.20;2.55;;;15.10;99.90;;;;;;5013630;28;20029;-72
2022/08/21 05:50:21;;;;;;;5.18;3.03;;;15.20;99.90;;;;;;5008699;28;20388;-72
2022/08/21 05:52:47;;;;;;;6.03;3.35;;;15.30;99.90;;;;;;5012534;28;20116;-72
2022/08/21 05:55:13;;;;;;;6.20;3.28;;;15.50;99.90;;;;;;4994427;28;20530;-71
2022/08/21 05:57:41;;;;;;;4.57;2.90;;;15.60;99.90;;;;;;5014836;28;20054;-72
2022/08/21 06:00:09;;;;;;;7.93;3.17;;;15.70;99.90;;;;;;5013772;28;20084;-73
2022/08/21 06:02:35;;;;;;;6.22;2.95;;;15.80;99.90;;;;;;4989992;28;20046;-73
2022/08/21 06:05:02;;;;;;;5.80;3.38;;;16.00;99.90;;;;;;4991319;28;20022;-73
2022/08/21 06:07:28;;;;;;;5.95;3.22;;;16.10;99.90;;;;;;4988028;28;20431;-72
2022/08/21 06:09:54;;;;;;;4.50;3.10;;;16.20;99.90;;;;;;4988807;28;20034;-70
2022/08/21 06:12:20;;;;;;;5.43;2.97;;;16.30;99.90;;;;;;4990830;28;20081;-71
2022/08/21 06:14:45;;;;;;;6.10;2.85;;;16.40;99.90;;;;;;4990149;28;20026;-70
2022/08/21 06:17:13;;;;;;;5.18;3.17;;;16.60;99.90;;;;;;4986688;28;20114;-70
2022/08/21 06:19:39;;;;;;;6.32;2.90;;;16.70;99.90;;;;;;4997762;28;20104;-71
2022/08/21 06:22:04;;;;;;;4.75;2.85;;;16.80;99.90;;;;;;4994814;28;20440;-72
2022/08/21 06:24:30;;;;;;;6.03;3.20;;;16.90;99.90;;;;;;4993636;28;20030;-72
2022/08/21 06:26:56;;;;;;;6.63;3.00;;;17.00;99.90;;;;;;4993921;28;20077;-70
2022/08/21 06:29:23;;;;;;;7.53;3.30;;;17.10;99.90;;;;;;4991154;28;20057;-70
2022/08/21 06:31:50;;;;;;;5.28;3.13;;;17.20;99.90;;;;;;4993654;28;20041;-71
2022/08/21 06:34:16;;;;;;;5.55;3.15;;;17.30;99.90;;;;;;4991802;28;20031;-71
2022/08/21 06:36:41;;;;;;;6.70;3.50;;;17.50;99.90;;;;;;4997788;28;20129;-74
2022/08/21 06:39:07;;;;;;;7.13;3.28;;;17.60;99.90;;;;;;4994750;28;20148;-77
2022/08/21 06:41:34;;;;;;;11.20;3.10;;;17.80;99.90;;;;;;4993368;28;20045;-73
2022/08/21 06:43:59;;;;;;;7.55;3.08;;;18.00;99.90;;;;;;4994129;28;20032;-74
2022/08/21 06:46:27;;;;;;;5.68;3.20;;;18.10;99.90;;;;;;4995236;28;20137;-73
2022/08/21 06:48:54;;;;;;;4.03;2.45;;;18.20;99.90;;;;;;4991562;28;20038;-71
2022/08/21 06:51:19;;;;;;;8.05;2.80;;;18.40;99.90;;;;;;4983111;28;20081;-72
2022/08/21 06:53:45;;;;;;;4.22;2.80;;;18.50;99.90;;;;;;4989590;28;20487;-71
2022/08/21 06:56:12;;;;;;;9.30;2.70;;;18.60;99.90;;;;;;4982166;28;20027;-71
2022/08/21 06:58:37;;;;;;;4.85;2.67;;;18.80;99.90;;;;;;4993479;28;20084;-71
2022/08/21 07:01:06;;;;;;;4.75;2.85;;;18.90;99.90;;;;;;4994187;28;20141;-72
2022/08/21 07:03:40;;;;;;;5.32;2.80;;;19.10;99.90;;;;;;5011533;28;20037;-69
2022/08/21 07:06:08;;;;;;;4.20;2.67;;;19.10;99.90;;;;;;5011532;28;20068;-69
2022/08/21 07:08:34;;;;;;;7.85;3.15;;;19.10;99.90;;;;;;5012785;28;20030;-71
2022/08/21 07:11:02;;;;;;;5.80;2.90;;;19.30;99.90;;;;;;5013193;28;20079;-72
2022/08/21 07:13:28;;;;;;;8.30;3.10;;;19.40;99.90;;;;;;5012021;28;20026;-72
2022/08/21 07:15:54;;;;;;;5.18;2.90;;;19.50;99.90;;;;;;5015086;28;20103;-73
2022/08/21 07:18:20;;;;;;;7.05;2.90;;;19.50;99.90;;;;;;5009548;28;20034;-71
2022/08/21 07:20:46;;;;;;;6.45;2.65;;;19.70;99.90;;;;;;5011918;28;20028;-70
2022/08/21 07:23:21;;;;;;;4.85;2.80;;;19.80;99.90;;;;;;5010021;28;20161;-72
2022/08/21 07:25:46;;;;;;;8.38;3.00;;;19.90;99.90;;;;;;5012808;28;20022;-71
2022/08/21 07:28:12;;;;;;;9.88;3.33;;;20.00;99.90;;;;;;5011691;28;20022;-71
2022/08/21 07:30:38;;;;;;;6.45;3.13;;;20.10;99.90;;;;;;5010069;28;20065;-70
2022/08/21 07:33:03;;;;;;;5.60;2.95;;;20.30;99.90;;;;;;5014016;28;20383;-70
2022/08/21 07:35:31;;;;;;;7.68;3.30;;;20.30;99.90;;;;;;5009579;28;20026;-73
2022/08/21 07:37:56;;;;;;;6.70;3.03;;;20.50;99.90;;;;;;5011714;28;20034;-71
2022/08/21 07:40:22;;;;;;;13.93;3.60;;;20.50;99.90;;;;;;5011307;28;20030;-74
2022/08/21 07:42:51;;;;;;;7.10;3.28;;;20.50;99.90;;;;;;5012349;28;20048;-72
2022/08/21 07:45:18;;;;;;;7.28;3.35;;;20.50;99.90;;;;;;5011388;28;20030;-73
2022/08/21 07:47:44;;;;;;;8.85;3.58;;;20.60;99.90;;;;;;5012319;28;20033;-72
2022/08/21 07:50:11;;;;;;;5.70;3.08;;;20.70;99.90;;;;;;5012095;28;20083;-73
2022/08/21 07:52:37;;;;;;;8.27;3.20;;;20.80;99.90;;;;;;5009951;28;20029;-72
2022/08/21 07:55:03;;;;;;;11.20;3.60;;;20.80;99.90;;;;;;5014676;28;20080;-73
2022/08/21 07:57:29;;;;;;;7.45;3.40;;;20.90;99.90;;;;;;5010853;28;20035;-72
2022/08/21 07:59:57;;;;;;;6.05;2.92;;;21.00;99.90;;;;;;5012510;28;20033;-71
2022/08/21 08:02:28;;;;;;;4.40;2.92;;;21.10;99.90;;;;;;5010311;28;20413;-72
2022/08/21 08:04:57;;;;;;;6.72;3.47;;;21.20;99.90;;;;;;5010391;28;20034;-72
2022/08/21 08:07:23;;;;;;;6.63;3.80;;;21.30;99.90;;;;;;5010651;28;20034;-71
2022/08/21 08:09:48;;;;;;;4.03;2.97;;;21.40;99.90;;;;;;5008206;28;20022;-72
2022/08/21 08:12:14;;;;;;;8.88;3.60;;;21.60;99.90;;;;;;5011201;28;20076;-72
2022/08/21 08:14:40;;;;;;;8.07;3.67;;;21.70;99.70;;;;;;5014953;28;20151;-73
2022/08/21 08:17:05;;;;;;;6.82;3.13;;;21.60;99.90;;;;;;5011839;28;20144;-72
2022/08/21 08:19:31;;;;;;;8.30;3.58;;;21.70;99.80;;;;;;5010620;28;20115;-71
2022/08/21 08:21:57;;;;;;;10.55;3.05;;;21.80;99.30;;;;;;5011851;28;20038;-71
2022/08/21 08:24:22;;;;;;;7.47;3.20;;;21.80;99.30;;;;;;5010667;28;20034;-71
2022/08/21 08:26:48;;;;;;;10.27;3.40;;;22.00;99.40;;;;;;5008991;28;20032;-71
2022/08/21 08:29:14;;;;;;;5.07;3.03;;;22.20;99.00;;;;;;5015472;28;20044;-72
2022/08/21 08:31:39;;;;;;;5.63;3.10;;;22.30;98.50;;;;;;5011817;28;20042;-73
2022/08/21 08:34:05;;;;;;;6.78;3.20;;;22.40;98.20;;;;;;5011603;28;20026;-72
2022/08/21 08:36:35;;;;;;;7.85;3.35;;;22.60;98.00;;;;;;5010164;28;20037;-72
2022/08/21 08:39:02;;;;;;;9.32;3.40;;;22.70;97.90;;;;;;5011541;28;20101;-72
2022/08/21 08:41:29;;;;;;;9.93;3.25;;;22.80;98.00;;;;;;5009594;28;20038;-70
2022/08/21 08:43:59;;;;;;;5.45;3.22;;;23.00;97.40;;;;;;5011317;28;20029;-72
2022/08/21 08:46:31;;;;;;;8.60;3.42;;;23.10;97.10;;;;;;5010846;28;20105;-71
2022/08/21 08:49:13;;;;;;;6.07;3.00;;;23.10;96.70;;;;;;5011148;28;20368;-72
2022/08/21 08:52:02;;;;;;;5.82;3.15;;;23.20;96.50;;;;;;4993546;28;20378;-73
2022/08/21 08:54:42;;;;;;;5.70;3.15;;;23.20;96.40;;;;;;5008884;28;20037;-72
2022/08/21 08:57:22;;;;;;;5.95;2.90;;;23.20;96.10;;;;;;5011615;28;20108;-72
2022/08/21 08:59:54;;;;;;;7.88;3.30;;;23.30;95.80;;;;;;5009411;28;20478;-72
2022/08/21 09:02:23;;;;;;;7.70;3.33;;;23.30;95.60;;;;;;5015284;28;20060;-72
2022/08/21 09:04:50;;;;;;;9.02;3.40;;;23.30;95.10;;;;;;5010591;28;20029;-71
2022/08/21 09:07:30;;;;;;;4.88;3.13;;;23.50;95.10;;;;;;5011029;28;20375;-71
2022/08/21 09:10:22;;;;;;;6.32;2.85;;;23.60;94.30;;;;;;5017518;28;20506;-72
2022/08/21 09:13:32;;;;;;;5.95;2.95;;;23.70;93.90;;;;;;5010824;28;20990;-72
2022/08/21 09:16:33;;;;;;;6.97;3.45;;;23.80;92.80;;;;;;4947767;29;20043;-72
2022/08/21 09:19:27;;;;;;;6.53;3.20;;;24.00;92.90;;;;;;4949413;29;20042;-71
2022/08/21 09:22:27;;;;;;;6.47;2.92;;;24.00;92.10;;;;;;4945009;29;20090;-72
2022/08/21 09:25:14;;;;;;;8.27;3.67;;;24.10;91.60;;;;;;4933839;29;20047;-72
2022/08/21 09:27:40;;;;;;;9.73;3.97;;;24.30;91.20;;;;;;4950115;29;20512;-72
2022/08/21 09:30:06;;;;;;;6.60;2.92;;;24.40;90.50;;;;;;4951338;28;20041;-72
2022/08/21 09:32:34;;;;;;;9.13;3.80;;;24.50;90.50;;;;;;4948551;28;20035;-71
2022/08/21 09:35:05;;;;;;;6.18;3.92;;;24.60;88.40;;;;;;4949874;29;20507;-71
2022/08/21 09:37:35;;;;;;;10.23;3.13;;;24.70;86.30;;;;;;4949797;29;20042;-70
2022/08/21 09:40:15;;;;;;;8.20;3.80;;;24.70;84.40;;;;;;4949806;29;20095;-70
2022/08/21 09:42:40;;;;;;;9.43;4.03;;;24.70;84.70;;;;;;4949625;28;20035;-69
2022/08/21 09:45:16;;;;;;;12.93;4.10;;;24.70;81.60;;;;;;4953868;29;20090;-70
2022/08/21 09:47:45;;;;;;;8.85;3.38;;;24.70;81.50;;;;;;4997236;28;20038;-72
2022/08/21 09:50:24;;;;;;;10.57;4.00;;;24.80;83.00;;;;;;5019162;28;20422;-71
2022/08/21 09:52:59;;;;;;;6.65;3.83;;;24.90;81.50;;;;;;5011323;28;20546;-70
2022/08/21 09:58:50;;;;;;;9.27;3.20;;;25.10;81.10;;;;;;4933667;29;20465;-71
2022/08/21 10:01:20;;;;;;;9.05;3.88;;;25.20;81.30;;;;;;5003990;28;20042;-69
2022/08/21 10:03:46;;;;;;;7.22;3.33;;;25.40;80.20;;;;;;5005114;28;20030;-71
2022/08/21 10:06:26;;;;;;;5.97;3.38;;;25.40;80.10;;;;;;5011878;28;20033;-71
2022/08/21 10:09:02;;;;;;;;;;;25.50;80.20;;;;;;5011575;28;20026;-70
2022/08/21 10:11:29;;;;;;;7.35;3.50;;;25.60;79.10;;;;;;5013467;28;20384;-71
2022/08/21 10:14:24;;;;;;;9.20;3.88;;;25.80;79.10;;;;;;5014121;28;20076;-72
2022/08/21 10:17:15;;;;;;;8.27;3.58;;;25.80;78.30;;;;;;4996752;28;20117;-70
2022/08/21 10:20:01;;;;;;;19.10;4.07;;;26.00;77.50;;;;;;5006754;28;20034;-72
2022/08/21 10:22:36;;;;;;;6.32;3.78;;;26.00;76.70;;;;;;5003760;28;20042;-72
2022/08/21 10:25:04;;;;;;;9.07;3.70;;;26.00;77.30;;;;;;5014013;28;20079;-72
2022/08/21 10:27:30;;;;;;;8.30;4.60;;;25.90;76.70;;;;;;5011715;28;20037;-71
2022/08/21 10:30:14;;;;;;;11.25;4.45;;;26.00;76.80;;;;;;5012396;28;20036;-71
2022/08/21 10:32:46;;;;;;;7.70;3.50;;;26.20;76.60;;;;;;5009651;28;20034;-71
2022/08/21 10:36:46;;;;;;;6.07;3.28;;;26.30;75.10;;;;;;5045600;27;1276162;-76
2022/08/21 10:39:24;;;;;;;14.75;4.03;;;26.20;75.20;;;;;;5085084;28;20020;-73
2022/08/21 10:41:53;;;;;;;7.60;3.67;;;26.40;74.90;;;;;;5088500;28;20020;-73
2022/08/21 10:45:11;;;;;;;10.90;4.18;;;26.40;75.40;;;;;;5088247;28;20429;-73
2022/08/21 10:47:51;;;;;;;7.32;3.65;;;26.50;74.60;;;;;;5042300;28;20073;-73
2022/08/21 10:50:19;;;;;;;7.38;3.85;;;26.50;74.10;;;;;;5088744;28;20028;-74
2022/08/21 10:52:48;;;;;;;8.45;4.07;;;26.50;74.20;;;;;;5088224;28;20107;-73
2022/08/21 10:55:23;;;;;;;6.82;3.80;;;26.60;74.00;;;;;;5086212;28;20032;-74
2022/08/21 10:57:52;;;;;;;7.03;3.28;;;26.50;73.70;;;;;;5080084;28;20121;-73
2022/08/21 11:00:22;;;;;;;6.28;2.92;;;26.50;73.50;;;;;;5088533;28;20055;-71
2022/08/21 11:03:12;;;;;;;8.45;3.70;;;26.50;74.20;;;;;;5088346;28;20055;-72
2022/08/21 11:05:49;;;;;;;;;;;26.50;73.50;;;;;;5083951;28;20154;-72
2022/08/21 11:08:23;;;;;;;7.00;3.28;;;26.50;72.70;;;;;;5077296;28;19931;-87
2022/08/21 11:11:07;;;;;;;7.20;3.13;;;26.40;73.20;;;;;;5077455;28;20032;-71
2022/08/21 11:13:43;;;;;;;7.93;4.00;;;26.10;72.80;;;;;;5080079;28;20032;-72
2022/08/21 11:16:32;;;;;;;6.03;3.70;;;26.10;73.30;;;;;;5085335;28;20032;-79
2022/08/21 11:19:22;;;;;;;7.95;3.53;;;26.20;73.10;;;;;;5087332;28;20174;-71
2022/08/21 11:22:01;;;;;;;;;;;26.50;73.30;;;;;;5080781;28;20028;-73
2022/08/21 11:24:41;;;;;;;10.13;4.10;;;26.70;72.40;;;;;;5075388;28;19943;-73
2022/08/21 11:27:27;;;;;;;7.22;3.28;;;27.00;71.00;;;;;;5082769;28;20366;-72
2022/08/21 11:29:59;;;;;;;9.50;3.70;;;27.10;70.50;;;;;;5084654;28;20024;-71
2022/08/21 11:32:50;;;;;;;7.30;4.18;;;27.30;70.40;;;;;;5087001;28;20469;-71
2022/08/21 11:35:35;;;;;;;6.43;3.20;;;27.30;69.80;;;;;;5087499;28;20051;-71
2022/08/21 11:38:47;;;;;;;8.73;4.15;;;27.50;69.50;;;;;;5077449;28;20024;-71
2022/08/21 11:41:34;;;;;;;4.85;3.22;;;27.60;69.70;;;;;;5084135;28;20476;-72
2022/08/21 11:44:26;;;;;;;8.40;3.15;;;27.80;69.10;;;;;;5085521;28;20024;-72
2022/08/21 11:47:40;;;;;;;7.22;3.70;;;27.90;68.90;;;;;;5075672;28;20024;-74
2022/08/21 11:50:39;;;;;;;6.13;3.50;;;27.90;68.50;;;;;;5061792;28;20027;-78
2022/08/21 11:53:31;;;;;;;9.27;3.87;;;28.00;68.20;;;;;;5023837;28;20041;-75
2022/08/21 11:56:26;;;;;;;5.85;3.40;;;27.90;67.80;;;;;;5077885;28;20040;-74
2022/08/21 11:58:58;;;;;;;8.35;3.42;;;27.70;67.50;;;;;;5079113;28;20031;-74
2022/08/21 12:01:29;;;;;;;10.45;3.55;;;27.50;67.60;;;;;;5075086;28;20023;-71
2022/08/21 12:04:02;;;;;;;6.00;3.03;;;27.50;68.50;;;;;;5072584;28;20542;-73
2022/08/21 12:06:41;;;;;;;5.50;3.55;;;27.60;67.30;;;;;;5074385;28;20036;-74
2022/08/21 12:09:31;;;;;;;6.88;4.10;;;27.70;66.70;;;;;;5069640;28;20029;-73
2022/08/21 12:12:10;;;;;;;11.50;3.40;;;27.90;66.20;;;;;;5059498;28;20037;-74
2022/08/21 12:14:47;;;;;;;5.10;3.45;;;28.00;65.70;;;;;;5064288;28;20040;-75
2022/08/21 12:17:34;;;;;;;8.50;4.05;;;28.00;65.80;;;;;;5064756;28;20033;-75
2022/08/21 12:20:27;;;;;;;7.88;3.58;;;28.00;65.60;;;;;;5059294;28;20086;-74
2022/08/21 12:23:01;;;;;;;5.15;3.65;;;28.00;64.90;;;;;;5060363;28;20063;-74
2022/08/21 12:25:41;;;;;;;6.95;3.58;;;27.90;65.30;;;;;;5064764;28;20024;-71
2022/08/21 12:28:10;;;;;;;6.30;3.15;;;27.60;65.20;;;;;;5066119;28;20493;-74
2022/08/21 12:30:43;;;;;;;4.65;3.05;;;27.20;65.60;;;;;;5064456;28;20036;-73
2022/08/21 12:33:31;;;;;;;8.27;3.97;;;26.90;65.80;;;;;;5064262;28;20371;-73
2022/08/21 12:36:10;;;;;;;11.35;3.50;;;26.60;66.30;;;;;;5066640;28;20075;-74
2022/08/21 12:38:54;;;;;;;4.93;2.92;;;26.40;66.40;;;;;;5065332;28;20054;-74
2022/08/21 12:41:26;;;;;;;7.20;3.47;;;26.50;66.40;;;;;;5069595;28;20389;-75
2022/08/21 12:44:07;;;;;;;5.40;3.03;;;26.80;65.70;;;;;;5071332;28;20016;-75
2022/08/21 12:46:43;;;;;;;5.13;3.20;;;27.10;66.10;;;;;;5069811;28;20435;-77
2022/08/21 12:49:22;;;;;;;6.88;3.42;;;27.50;65.50;;;;;;5068948;28;20086;-71
2022/08/21 12:52:01;;;;;;;7.45;3.33;;;27.80;65.70;;;;;;5062221;28;20688;-74
2022/08/21 12:54:30;;;;;;;4.32;2.97;;;28.30;64.20;;;;;;5067661;28;20044;-69
2022/08/21 12:57:05;;;;;;;4.70;3.28;;;28.50;63.50;;;;;;5071425;28;20032;-72
2022/08/21 12:59:31;;;;;;;6.57;3.15;;;28.70;63.60;;;;;;5040114;28;20032;-71
2022/08/21 13:02:01;;;;;;;5.40;3.47;;;28.90;63.40;;;;;;5072102;28;20033;-70
2022/08/21 13:04:39;;;;;;;7.47;3.40;;;29.10;62.90;;;;;;5067242;28;20086;-70
2022/08/21 13:07:12;;;;;;;5.60;3.15;;;29.30;62.00;;;;;;5068050;28;20263;-70
2022/08/21 13:09:54;;;;;;;6.15;3.20;;;29.40;61.80;;;;;;5065985;28;20091;-71
2022/08/21 13:12:22;;;;;;;5.60;3.60;;;29.50;61.40;;;;;;5069755;28;20020;-71
2022/08/21 13:14:49;;;;;;;7.47;3.13;;;29.70;61.00;;;;;;5066607;28;20063;-71
2022/08/21 13:17:19;;;;;;;7.10;3.78;;;29.90;61.10;;;;;;5071371;28;20098;-70
2022/08/21 13:19:56;;;;;;;8.20;3.95;;;30.00;61.10;;;;;;5065666;28;20291;-70